Time;durP1;ratioP1;P1;durP2;ratioP2;P2;SDS_P1;SDS_P2;PMS_P1;PMS_P2;Temp;Humidity;BMP_temperature;BMP_pressure;BME280_temperature;BME280_humidity;BME280_pressure;Samples;Min_cycle;Max_cycle;Signal;HPM_P1;HPM_P2
2023/04/13 00:00:38;;;;;;;3.25;0.60;;;;;;;4.42;100.00;99300.66;5075648;28;20128;-84
2023/04/13 00:03:05;;;;;;;1.73;0.70;;;;;;;4.49;100.00;99279.97;5075702;28;20381;-84
2023/04/13 00:05:33;;;;;;;7.25;0.80;;;;;;;4.56;100.00;99275.34;5074210;28;20075;-84
2023/04/13 00:08:01;;;;;;;3.90;0.68;;;;;;;4.52;100.00;99288.41;5057697;28;20123;-84
2023/04/13 00:10:27;;;;;;;4.57;0.50;;;;;;;4.51;100.00;99267.13;5074121;28;20064;-84
2023/04/13 00:12:57;;;;;;;3.15;0.70;;;;;;;4.51;100.00;99272.50;5073794;28;20143;-84
2023/04/13 00:15:23;;;;;;;3.50;0.60;;;;;;;4.55;100.00;99269.16;5074230;28;20040;-84
2023/04/13 00:17:48;;;;;;;2.05;0.70;;;;;;;4.56;100.00;99273.50;5073825;28;20032;-84
2023/04/13 00:20:13;;;;;;;1.97;1.00;;;;;;;4.64;100.00;99271.63;5073860;28;20120;-84
2023/04/13 00:22:43;;;;;;;4.77;0.67;;;;;;;4.65;100.00;99273.25;5090767;28;20488;-84
2023/04/13 00:25:11;;;;;;;6.60;0.60;;;;;;;4.68;100.00;99270.97;5057769;28;20033;-84
2023/04/13 00:27:39;;;;;;;4.05;0.68;;;;;;;4.74;100.00;99270.09;5075210;28;20499;-84
2023/04/13 00:30:16;;;;;;;2.90;0.50;;;;;;;4.78;100.00;99259.72;5057082;28;20078;-84
2023/04/13 00:32:44;;;;;;;5.93;0.65;;;;;;;4.78;100.00;99278.53;5058242;28;20028;-83
2023/04/13 00:35:10;;;;;;;4.05;0.60;;;;;;;4.82;100.00;99277.06;5074607;28;20053;-84
2023/04/13 00:37:37;;;;;;;2.92;0.60;;;;;;;4.83;100.00;99275.22;5040913;28;20036;-84
2023/04/13 00:40:05;;;;;;;6.25;0.70;;;;;;;4.83;100.00;99281.41;5056880;28;20028;-84
2023/04/13 00:42:30;;;;;;;4.70;0.40;;;;;;;4.84;100.00;99275.00;5056341;28;20036;-84
2023/04/13 00:44:56;;;;;;;2.22;0.70;;;;;;;4.86;100.00;99282.84;5073340;28;20040;-84
2023/04/13 00:47:35;;;;;;;3.60;0.50;;;;;;;4.88;100.00;99272.72;5073288;28;20109;-84
2023/04/13 00:50:02;;;;;;;1.27;0.45;;;;;;;4.97;100.00;99284.03;5056779;28;20028;-84
2023/04/13 00:52:28;;;;;;;5.00;0.43;;;;;;;4.93;100.00;99267.50;5056818;28;20099;-84
2023/04/13 00:54:56;;;;;;;2.40;0.40;;;;;;;4.89;100.00;99280.56;5073181;28;20036;-84
2023/04/13 00:57:24;;;;;;;7.10;0.90;;;;;;;4.89;100.00;99260.94;5073158;28;20036;-84
2023/04/13 00:59:51;;;;;;;4.55;0.85;;;;;;;4.85;100.00;99267.75;5072683;28;20052;-84
2023/04/13 01:02:17;;;;;;;3.58;0.70;;;;;;;4.86;100.00;99283.69;5089770;28;20529;-84
2023/04/13 01:04:48;;;;;;;4.93;0.50;;;;;;;4.88;100.00;99273.53;5073132;28;20036;-84
2023/04/13 01:07:51;;;;;;;3.78;0.88;;;;;;;4.89;100.00;99271.69;5074728;28;20066;-84
2023/04/13 01:10:20;;;;;;;1.85;0.60;;;;;;;4.90;100.00;99281.38;5073115;28;20086;-84
2023/04/13 01:13:33;;;;;;;4.90;0.70;;;;;;;4.95;100.00;99265.44;5072545;28;20037;-85
2023/04/13 01:16:24;;;;;;;5.03;0.80;;;;;;;4.92;100.00;99282.00;5035305;28;20532;-84
2023/04/13 01:18:52;;;;;;;1.92;0.45;;;;;;;5.06;100.00;99269.28;5035213;28;20546;-84
2023/04/13 01:21:24;;;;;;;3.38;0.65;;;;;;;5.04;100.00;99268.69;5061110;28;20064;-85
2023/04/13 01:24:19;;;;;;;2.65;0.50;;;;;;;5.06;100.00;99288.09;5056998;28;20028;-84
2023/04/13 01:26:53;;;;;;;2.63;0.45;;;;;;;5.03;100.00;99275.09;5072971;28;20036;-84
2023/04/13 01:29:19;;;;;;;5.47;0.60;;;;;;;4.99;100.00;99280.09;5073398;28;20024;-84
2023/04/13 01:31:45;;;;;;;7.85;0.88;;;;;;;5.02;100.00;99279.66;5055952;28;20037;-84
2023/04/13 01:34:11;;;;;;;3.72;0.60;;;;;;;5.05;100.00;99276.53;5074074;28;20137;-84
2023/04/13 01:36:38;;;;;;;3.43;0.70;;;;;;;5.07;100.00;99287.06;5072924;28;20491;-84
2023/04/13 01:39:04;;;;;;;6.63;1.13;;;;;;;5.06;100.00;99283.56;5072414;28;20297;-84
2023/04/13 01:41:30;;;;;;;8.02;0.80;;;;;;;5.08;100.00;99286.03;5073795;28;20032;-84
2023/04/13 01:43:55;;;;;;;9.30;0.90;;;;;;;5.07;100.00;99290.56;5071772;28;20038;-84
2023/04/13 01:46:25;;;;;;;7.43;0.82;;;;;;;5.08;100.00;99294.09;5072076;28;20032;-83
2023/04/13 01:48:57;;;;;;;7.10;0.80;;;;;;;5.16;100.00;99306.44;5072647;28;20029;-83
2023/04/13 01:51:29;;;;;;;6.45;0.60;;;;;;;5.09;100.00;99301.94;5072507;28;20281;-83
2023/04/13 01:54:11;;;;;;;5.53;0.88;;;;;;;5.12;100.00;99307.91;5072072;28;20028;-83
2023/04/13 01:56:40;;;;;;;4.93;1.00;;;;;;;5.10;100.00;99314.31;5072384;28;20380;-83
2023/04/13 01:59:06;;;;;;;5.53;0.80;;;;;;;5.10;100.00;99319.69;5088710;28;20055;-83
2023/04/13 02:01:31;;;;;;;4.03;0.70;;;;;;;5.07;100.00;99333.56;5089107;28;20037;-83
2023/04/13 02:03:57;;;;;;;5.63;1.00;;;;;;;5.08;100.00;99343.28;5072130;28;20030;-84
2023/04/13 02:06:23;;;;;;;3.08;0.93;;;;;;;5.16;100.00;99336.00;5073580;28;20582;-83
2023/04/13 02:08:48;;;;;;;5.13;0.90;;;;;;;5.08;100.00;99351.34;5055559;28;20029;-83
2023/04/13 02:11:17;;;;;;;8.90;0.90;;;;;;;5.09;100.00;99336.88;5072068;28;20040;-84
2023/04/13 02:13:43;;;;;;;10.07;1.55;;;;;;;5.12;100.00;99346.38;5072979;28;20353;-84
2023/04/13 02:16:08;;;;;;;8.45;1.13;;;;;;;5.08;100.00;99347.84;5055531;28;20457;-84
2023/04/13 02:18:34;;;;;;;6.70;1.30;;;;;;;5.10;100.00;99353.84;5055360;28;20497;-84
2023/04/13 02:21:06;;;;;;;11.38;1.23;;;;;;;5.08;100.00;99353.22;5055124;28;20033;-84
2023/04/13 02:23:33;;;;;;;5.60;0.90;;;;;;;5.05;100.00;99365.25;5072058;28;20492;-84
2023/04/13 02:25:58;;;;;;;9.15;1.05;;;;;;;5.05;100.00;99372.50;5073055;28;20029;-84
2023/04/13 02:28:28;;;;;;;5.53;1.20;;;;;;;5.05;100.00;99369.81;5055080;28;20039;-84
2023/04/13 02:30:54;;;;;;;4.27;1.07;;;;;;;5.05;100.00;99370.63;5071755;28;20036;-85
2023/04/13 02:33:20;;;;;;;5.07;1.20;;;;;;;5.06;100.00;99382.19;5073160;28;20028;-85
2023/04/13 02:35:46;;;;;;;7.88;1.50;;;;;;;5.09;100.00;99376.38;5072910;28;20528;-84
2023/04/13 02:38:11;;;;;;;8.73;1.92;;;;;;;5.09;100.00;99389.81;5071687;28;20125;-85
2023/04/13 02:40:37;;;;;;;11.82;1.80;;;;;;;5.06;100.00;99382.19;5072356;28;20071;-84
2023/04/13 02:43:04;;;;;;;8.48;1.80;;;;;;;5.10;100.00;99386.91;5075018;28;20024;-84
2023/04/13 02:45:30;;;;;;;8.43;2.20;;;;;;;5.09;100.00;99387.13;5075415;28;20066;-84
2023/04/13 02:47:56;;;;;;;7.80;1.95;;;;;;;5.08;100.00;99401.63;5058807;28;20511;-84
2023/04/13 02:50:21;;;;;;;10.55;1.85;;;;;;;5.07;100.00;99405.34;5076826;28;20123;-83
2023/04/13 02:52:47;;;;;;;11.53;1.50;;;;;;;5.15;100.00;99412.34;5058656;28;20475;-84
2023/04/13 02:55:15;;;;;;;4.63;1.30;;;;;;;5.08;100.00;99413.19;5076743;28;20435;-84
2023/04/13 02:57:43;;;;;;;13.88;2.17;;;;;;;5.08;100.00;99407.00;5076095;28;20357;-84
2023/04/13 03:00:09;;;;;;;4.55;1.17;;;;;;;5.04;100.00;99406.59;5058673;28;20052;-84
2023/04/13 03:02:36;;;;;;;7.83;1.53;;;;;;;5.07;100.00;99434.91;5075152;28;20082;-84
2023/04/13 03:05:04;;;;;;;11.43;1.77;;;;;;;5.03;100.00;99439.06;5058412;28;20785;-83
2023/04/13 03:07:30;;;;;;;6.13;1.52;;;;;;;4.94;100.00;99446.53;5091850;28;20043;-84
2023/04/13 03:09:56;;;;;;;2.70;1.10;;;;;;;4.77;100.00;99448.03;5076298;28;20036;-84
2023/04/13 03:12:21;;;;;;;5.07;0.80;;;;;;;4.63;100.00;99455.34;5057827;28;20025;-84
2023/04/13 03:14:48;;;;;;;5.07;0.77;;;;;;;4.56;100.00;99455.34;5075092;28;20036;-83
2023/04/13 03:17:15;;;;;;;3.47;0.70;;;;;;;4.51;100.00;99455.16;5058585;28;20123;-84
2023/04/13 03:19:41;;;;;;;5.57;1.20;;;;;;;4.48;100.00;99459.06;5091771;28;20032;-84
2023/04/13 03:22:07;;;;;;;5.55;1.38;;;;;;;4.48;100.00;99464.44;5041690;28;20028;-84
2023/04/13 03:24:34;;;;;;;7.32;1.80;;;;;;;4.49;100.00;99465.28;5075062;28;20028;-84
2023/04/13 03:27:02;;;;;;;8.77;2.10;;;;;;;4.52;100.00;99473.75;5058480;28;20021;-84
2023/04/13 03:29:28;;;;;;;9.18;2.22;;;;;;;4.59;100.00;99476.41;5058381;28;20082;-84
2023/04/13 03:31:53;;;;;;;9.00;2.13;;;;;;;4.63;100.00;99480.31;5075975;28;20387;-84
2023/04/13 03:34:18;;;;;;;7.03;1.70;;;;;;;4.67;100.00;99489.63;5041550;28;20029;-84
2023/04/13 03:36:44;;;;;;;12.87;3.43;;;;;;;4.71;100.00;99493.56;5057933;28;20476;-84
2023/04/13 03:39:10;;;;;;;10.18;2.30;;;;;;;4.74;100.00;99484.25;5074889;28;20033;-84
2023/04/13 03:41:35;;;;;;;15.30;2.70;;;;;;;4.74;100.00;99495.81;5074671;28;20476;-84
2023/04/13 03:44:01;;;;;;;15.70;3.27;;;;;;;4.79;100.00;99491.69;5040732;28;20036;-84
2023/04/13 03:46:26;;;;;;;13.25;3.20;;;;;;;4.76;100.00;99492.91;5040812;28;20329;-84
2023/04/13 03:48:54;;;;;;;8.83;3.67;;;;;;;4.77;100.00;99502.63;5046276;28;20032;-84
2023/04/13 03:51:20;;;;;;;11.60;3.70;;;;;;;4.81;100.00;99509.22;5094165;28;20028;-84
2023/04/13 03:53:46;;;;;;;11.47;4.03;;;;;;;4.78;100.00;99498.91;5095980;28;20353;-84
2023/04/13 03:56:11;;;;;;;15.98;4.35;;;;;;;4.71;100.00;99504.31;5094751;28;20027;-84
2023/04/13 03:58:37;;;;;;;11.27;4.80;;;;;;;4.70;100.00;99524.13;5060882;28;20196;-84
2023/04/13 04:01:03;;;;;;;12.30;4.80;;;;;;;4.67;100.00;99524.56;5061296;28;20036;-84
2023/04/13 04:03:29;;;;;;;12.67;4.67;;;;;;;4.67;100.00;99521.06;5077511;28;20032;-84
2023/04/13 04:05:54;;;;;;;10.52;3.72;;;;;;;4.73;100.00;99525.59;5094457;28;20028;-84
2023/04/13 04:08:20;;;;;;;9.47;3.13;;;;;;;4.69;100.00;99527.84;5077602;28;20388;-84
2023/04/13 04:10:48;;;;;;;17.47;4.00;;;;;;;4.71;100.00;99533.00;5077401;28;20035;-84
2023/04/13 04:13:13;;;;;;;12.88;4.07;;;;;;;4.71;100.00;99530.31;5093751;28;20040;-84
2023/04/13 04:15:39;;;;;;;13.80;4.10;;;;;;;4.70;100.00;99534.88;5094177;28;20140;-84
2023/04/13 04:18:04;;;;;;;14.10;5.10;;;;;;;4.67;100.00;99553.28;5077418;28;20040;-86
2023/04/13 04:20:30;;;;;;;9.05;3.90;;;;;;;4.63;100.00;99557.41;5077415;28;20044;-88
2023/04/13 04:22:59;;;;;;;10.20;3.50;;;;;;;4.58;100.00;99555.38;5093874;28;20035;-88
2023/04/13 04:52:59;;;;;;;15.38;4.50;;;;;;;4.34;100.00;99597.06;5114795;28;20042;-88
2023/04/13 05:18:50;;;;;;;15.35;6.03;;;;;;;4.45;100.00;99614.47;5094194;28;20039;-88
2023/04/13 05:28:04;;;;;;;14.80;6.18;;;;;;;4.46;100.00;99622.31;5093740;28;20145;-87
2023/04/13 05:30:33;;;;;;;11.48;4.93;;;;;;;4.47;100.00;99626.63;5059296;28;20407;-87
2023/04/13 05:33:06;;;;;;;8.25;4.70;;;;;;;4.51;100.00;99621.69;5076623;28;20016;-90
2023/04/13 05:35:36;;;;;;;10.38;3.80;;;;;;;4.54;100.00;99635.53;5094608;28;20115;-90
2023/04/13 05:38:04;;;;;;;11.70;3.88;;;;;;;4.54;100.00;99637.41;5075264;28;20051;-89
2023/04/13 05:40:33;;;;;;;8.68;3.50;;;;;;;4.58;100.00;99641.34;5075901;28;20036;-87
2023/04/13 05:43:04;;;;;;;10.18;3.08;;;;;;;4.60;100.00;99647.31;5075835;28;20034;-87
2023/04/13 05:45:29;;;;;;;13.80;3.38;;;;;;;4.62;100.00;99661.38;5093893;28;20032;-86
2023/04/13 05:47:58;;;;;;;10.38;3.38;;;;;;;4.66;100.00;99670.66;5075380;28;20111;-87
2023/04/13 05:50:23;;;;;;;15.20;3.30;;;;;;;4.68;100.00;99655.19;5075794;28;20084;-87
2023/04/13 05:53:00;;;;;;;5.53;2.30;;;;;;;4.69;100.00;99656.81;5076612;28;20032;-89
2023/04/13 05:55:31;;;;;;;6.38;2.63;;;;;;;4.70;100.00;99649.59;5078387;28;20472;-89
2023/04/13 05:58:02;;;;;;;7.30;2.40;;;;;;;4.74;100.00;99672.34;5060795;28;20043;-88
2023/04/13 06:00:28;;;;;;;5.78;2.40;;;;;;;4.80;100.00;99676.91;5093421;28;20026;-85
2023/04/13 06:02:59;;;;;;;7.90;2.35;;;;;;;4.84;100.00;99679.97;5076189;28;20126;-86
2023/04/13 06:05:25;;;;;;;10.27;2.97;;;;;;;4.87;100.00;99695.69;5059397;28;20118;-86
2023/04/13 06:07:51;;;;;;;5.83;2.00;;;;;;;4.94;100.00;99693.03;5093246;28;20118;-86
2023/04/13 06:10:18;;;;;;;6.97;2.00;;;;;;;4.94;100.00;99696.53;5100911;28;20088;-86
2023/04/13 06:12:47;;;;;;;11.68;2.60;;;;;;;4.94;100.00;99706.47;5134102;28;20475;-86
2023/04/13 06:15:13;;;;;;;6.53;2.03;;;;;;;4.98;100.00;99713.91;5117713;27;20486;-86
2023/04/13 06:17:41;;;;;;;7.25;2.72;;;;;;;4.99;100.00;99707.50;5120190;27;20023;-86
2023/04/13 06:20:16;;;;;;;7.90;3.13;;;;;;;5.00;100.00;99706.44;5120117;27;20027;-85
2023/04/13 06:22:46;;;;;;;11.52;2.75;;;;;;;5.07;100.00;99719.91;5139135;27;20114;-86
2023/04/13 06:25:13;;;;;;;6.32;2.58;;;;;;;5.10;100.00;99714.94;5120576;27;20047;-85
2023/04/13 06:27:42;;;;;;;12.00;2.92;;;;;;;5.18;100.00;99723.81;5119849;27;20079;-87
2023/04/13 06:30:09;;;;;;;12.43;2.90;;;;;;;5.23;100.00;99727.53;5120250;27;20031;-86
2023/04/13 06:32:38;;;;;;;8.05;2.45;;;;;;;5.31;100.00;99731.06;5137985;27;20054;-85
2023/04/13 06:35:04;;;;;;;12.90;2.85;;;;;;;5.32;100.00;99725.47;5138103;27;20031;-86
2023/04/13 06:37:52;;;;;;;6.95;2.80;;;;;;;5.36;100.00;99745.53;5119704;27;20023;-86
2023/04/13 06:40:19;;;;;;;7.57;2.20;;;;;;;5.42;100.00;99738.50;5100491;27;20416;-86
2023/04/13 06:42:47;;;;;;;10.00;2.20;;;;;;;5.44;100.00;99741.81;5119722;27;20027;-86
2023/04/13 06:45:12;;;;;;;5.82;2.30;;;;;;;5.49;100.00;99738.50;5120519;27;20055;-85
2023/04/13 06:47:41;;;;;;;9.83;2.20;;;;;;;5.51;100.00;99742.63;5119394;27;20051;-85
2023/04/13 06:50:14;;;;;;;4.43;2.30;;;;;;;5.58;100.00;99758.75;5136152;27;20030;-86
2023/04/13 06:52:46;;;;;;;8.48;2.08;;;;;;;5.66;100.00;99774.69;5119251;27;20117;-85
2023/04/13 06:55:16;;;;;;;4.80;1.95;;;;;;;5.76;100.00;99756.25;5119287;27;20031;-85
2023/04/13 06:57:44;;;;;;;8.57;2.30;;;;;;;5.84;100.00;99774.03;5119081;27;20035;-85
2023/04/13 07:00:18;;;;;;;6.35;2.08;;;;;;;5.90;100.00;99772.38;5118993;27;20042;-85
2023/04/13 07:02:46;;;;;;;9.00;2.80;;;;;;;6.01;100.00;99771.75;5119517;27;20506;-84
2023/04/13 07:05:11;;;;;;;6.85;2.03;;;;;;;6.02;100.00;99773.38;5119389;27;20019;-86
2023/04/13 07:07:37;;;;;;;9.43;2.50;;;;;;;6.04;100.00;99776.72;5119359;27;20442;-86
2023/04/13 07:10:03;;;;;;;6.75;2.35;;;;;;;6.10;100.00;99780.44;5115442;28;20048;-85
2023/04/13 07:12:29;;;;;;;7.63;2.47;;;;;;;6.14;100.00;99795.94;5115546;28;20107;-86
2023/04/13 07:14:54;;;;;;;9.75;2.15;;;;;;;6.12;100.00;99792.63;5115579;28;20119;-85
2023/04/13 07:17:22;;;;;;;13.03;2.93;;;;;;;6.13;100.00;99794.28;5098871;28;20059;-85
2023/04/13 07:19:48;;;;;;;9.77;2.38;;;;;;;6.17;100.00;99796.56;5116981;28;20036;-85
2023/04/13 07:22:15;;;;;;;8.52;2.10;;;;;;;6.18;100.00;99798.22;5115516;28;20023;-86
2023/04/13 07:24:46;;;;;;;7.82;2.25;;;;;;;6.14;100.00;99809.41;5116529;28;20103;-86
2023/04/13 07:27:14;;;;;;;6.28;2.35;;;;;;;6.19;100.00;99822.25;5116009;28;20031;-86
2023/04/13 07:29:39;;;;;;;10.02;2.25;;;;;;;6.21;100.00;99813.94;5116435;28;20027;-87
2023/04/13 07:32:08;;;;;;;16.20;2.87;;;;;;;6.29;100.00;99813.72;5116511;28;20368;-86
2023/04/13 07:34:35;;;;;;;6.47;2.08;;;;;;;6.32;100.00;99822.19;5114968;28;20518;-86
2023/04/13 07:37:11;;;;;;;8.73;2.60;;;;;;;6.37;100.00;99828.81;5114986;28;20032;-86
2023/04/13 07:39:36;;;;;;;10.60;2.60;;;;;;;6.37;100.00;99835.03;5116198;28;20114;-86
2023/04/13 07:42:04;;;;;;;11.53;1.40;;;;;;;6.34;100.00;99845.41;5116515;28;20127;-86
2023/04/13 07:44:30;;;;;;;8.90;2.60;;;;;;;6.26;100.00;99841.91;5114805;28;20035;-87
2023/04/13 07:46:58;;;;;;;11.53;2.57;;;;;;;6.35;100.00;99845.19;5115145;28;20361;-86
2023/04/13 07:49:24;;;;;;;9.90;2.65;;;;;;;6.39;100.00;99859.06;5131917;27;20122;-86
2023/04/13 07:51:53;;;;;;;8.83;2.53;;;;;;;6.47;100.00;99853.44;5114977;28;20122;-86
2023/04/13 07:54:18;;;;;;;12.30;2.20;;;;;;;6.61;100.00;99863.13;5114389;28;20027;-86
2023/04/13 07:56:44;;;;;;;15.90;2.47;;;;;;;6.74;100.00;99861.44;5098481;28;20081;-86
2023/04/13 07:59:14;;;;;;;13.70;2.57;;;;;;;6.90;100.00;99855.53;5115294;28;20054;-86
2023/04/13 08:01:40;;;;;;;12.35;2.40;;;;;;;7.07;100.00;99880.16;5114495;28;20043;-87
2023/04/13 08:04:05;;;;;;;11.83;2.90;;;;;;;7.28;100.00;99861.94;5114350;28;20023;-86
2023/04/13 08:06:38;;;;;;;12.98;2.67;;;;;;;7.46;100.00;99880.94;5114511;28;20030;-86
2023/04/13 08:09:06;;;;;;;11.77;2.38;;;;;;;7.66;100.00;99877.25;5114803;28;20079;-87
2023/04/13 08:11:36;;;;;;;9.43;2.00;;;;;;;7.92;100.00;99878.91;5116179;28;20027;-86
2023/04/13 08:14:05;;;;;;;11.90;2.80;;;;;;;7.90;100.00;99886.41;5115891;28;20080;-87
2023/04/13 08:16:39;;;;;;;15.00;2.30;;;;;;;7.93;100.00;99901.31;5115291;28;20096;-87
2023/04/13 08:19:09;;;;;;;13.25;3.08;;;;;;;7.87;100.00;99886.84;5115078;28;20054;-86
2023/04/13 08:21:39;;;;;;;9.95;2.33;;;;;;;7.98;100.00;99896.09;5114573;28;20040;-87
2023/04/13 08:24:05;;;;;;;14.00;2.47;;;;;;;8.04;100.00;99895.22;5115836;28;20027;-87
2023/04/13 08:26:30;;;;;;;9.15;2.65;;;;;;;7.95;100.00;99901.94;5114530;28;20035;-86
2023/04/13 08:28:58;;;;;;;9.77;2.03;;;;;;;8.03;100.00;99913.31;5115698;28;20023;-85
2023/04/13 08:31:31;;;;;;;11.00;2.70;;;;;;;8.11;100.00;99924.88;5114301;28;20028;-85
2023/04/13 08:33:59;;;;;;;11.90;2.75;;;;;;;8.18;100.00;99922.91;5115788;28;20035;-87
2023/04/13 08:36:25;;;;;;;13.75;2.65;;;;;;;8.24;100.00;99920.16;5115548;28;20038;-86
2023/04/13 08:38:52;;;;;;;11.65;2.65;;;;;;;8.40;100.00;99921.47;5112594;28;20088;-86
2023/04/13 08:41:28;;;;;;;15.13;2.97;;;;;;;8.45;100.00;99926.22;5113848;28;20055;-86
2023/04/13 08:43:54;;;;;;;14.95;2.40;;;;;;;8.31;100.00;99932.78;5114497;28;20031;-86
2023/04/13 08:46:22;;;;;;;12.65;2.13;;;;;;;8.31;98.29;99949.00;5114696;28;20467;-85
2023/04/13 08:48:50;;;;;;;12.68;2.60;;;;;;;8.15;98.20;99948.53;5115071;28;20042;-86
2023/04/13 08:51:21;;;;;;;13.00;2.03;;;;;;;8.20;99.38;99945.16;5115047;28;20081;-86
2023/04/13 08:53:46;;;;;;;14.57;2.30;;;;;;;8.28;96.98;99935.94;5114900;28;20096;-86
2023/04/13 08:56:16;;;;;;;12.00;2.00;;;;;;;8.30;95.49;99952.75;5113396;28;20440;-86
2023/04/13 09:01:48;;;;;;;10.02;2.10;;;;;;;8.72;94.17;99964.63;5101415;28;20139;-86
2023/04/13 09:04:37;;;;;;;12.38;2.20;;;;;;;8.89;94.37;99972.97;5115362;28;20035;-86
2023/04/13 09:07:03;;;;;;;15.43;2.95;;;;;;;8.97;93.09;99968.31;5130333;27;20032;-86
2023/04/13 09:09:45;;;;;;;10.77;2.20;;;;;;;9.03;89.17;99975.53;5130169;27;20048;-85
2023/04/13 09:12:13;;;;;;;13.55;1.80;;;;;;;9.13;90.52;100009.09;5113593;28;20023;-86
2023/04/13 09:14:45;;;;;;;9.65;1.90;;;;;;;9.18;88.27;99992.19;5113084;28;20024;-86
2023/04/13 09:17:33;;;;;;;12.82;1.85;;;;;;;9.20;89.76;99990.09;5114525;28;20098;-86
2023/04/13 09:20:12;;;;;;;13.13;2.63;;;;;;;9.27;88.63;99982.72;5113341;28;20106;-86
2023/04/13 09:22:38;;;;;;;11.23;1.63;;;;;;;9.19;88.92;99987.63;5113428;28;20024;-86
2023/04/13 09:25:18;;;;;;;14.65;2.42;;;;;;;9.06;89.44;100002.94;5114679;28;20104;-86
2023/04/13 09:27:58;;;;;;;13.50;2.25;;;;;;;9.07;87.83;99998.38;5098252;28;20028;-86
2023/04/13 09:30:31;;;;;;;10.07;1.75;;;;;;;8.99;88.33;100007.63;5114712;28;20122;-86
2023/04/13 09:33:04;;;;;;;10.27;1.83;;;;;;;9.04;87.51;100024.00;5113433;28;20108;-86
2023/04/13 09:35:31;;;;;;;7.38;1.35;;;;;;;8.90;88.35;100008.97;5113022;28;20035;-87
2023/04/13 09:38:04;;;;;;;10.68;2.03;;;;;;;8.98;89.81;100026.78;5114053;28;20031;-86
2023/04/13 09:40:31;;;;;;;13.98;2.08;;;;;;;8.95;85.88;100047.00;5113791;28;20058;-86
2023/04/13 09:42:59;;;;;;;10.02;1.80;;;;;;;8.91;86.30;100027.66;5129495;27;20386;-87
2023/04/13 09:45:33;;;;;;;9.23;1.58;;;;;;;8.94;86.95;100048.88;5114452;28;20092;-87
2023/04/13 09:48:02;;;;;;;12.75;1.67;;;;;;;9.03;85.66;100040.47;5114333;28;20036;-85
2023/04/13 09:50:30;;;;;;;8.75;1.50;;;;;;;9.13;84.53;100052.41;5112171;28;20418;-86
2023/04/13 09:53:06;;;;;;;9.40;1.40;;;;;;;9.14;85.49;100055.97;5112501;28;20027;-85
2023/04/13 09:55:33;;;;;;;10.10;1.90;;;;;;;8.99;84.81;100055.47;5112545;28;20028;-86
2023/04/13 09:58:17;;;;;;;12.55;2.03;;;;;;;8.95;88.93;100066.75;5112500;28;20084;-86
2023/04/13 10:00:45;;;;;;;9.85;1.65;;;;;;;8.95;87.02;100088.41;5112565;28;20487;-86
2023/04/13 10:03:21;;;;;;;11.80;2.22;;;;;;;8.92;86.58;100086.16;5095305;28;20023;-86
2023/04/13 10:05:47;;;;;;;16.50;2.25;;;;;;;8.98;87.25;100094.44;5113314;28;20027;-86
2023/04/13 10:08:13;;;;;;;12.45;2.40;;;;;;;9.14;85.83;100093.84;5112891;28;20055;-86
2023/04/13 10:10:39;;;;;;;11.20;2.47;;;;;;;9.16;85.04;100080.09;5111811;28;20058;-85
2023/04/13 10:13:27;;;;;;;11.60;1.98;;;;;;;9.24;86.49;100093.31;5113613;28;20035;-86
2023/04/13 10:16:18;;;;;;;9.35;2.30;;;;;;;9.54;87.92;100093.38;5114712;28;20027;-86
2023/04/13 10:19:00;;;;;;;14.40;2.75;;;;;;;9.80;86.39;100103.06;5113408;28;20089;-86
2023/04/13 10:21:35;;;;;;;12.80;2.47;;;;;;;9.86;83.52;100105.91;5112175;28;20050;-86
2023/04/13 10:24:11;;;;;;;11.65;2.92;;;;;;;9.82;82.66;100110.97;5112408;28;20120;-87
2023/04/13 10:26:43;;;;;;;13.10;2.80;;;;;;;9.87;81.78;100108.38;5112096;28;20463;-87
2023/04/13 10:29:13;;;;;;;12.27;2.55;;;;;;;9.81;80.42;100103.88;5113314;28;20348;-87
2023/04/13 10:31:46;;;;;;;13.00;3.05;;;;;;;9.69;81.19;100121.97;5111980;28;20031;-86
2023/04/13 10:34:29;;;;;;;13.32;3.08;;;;;;;9.90;80.83;100115.25;5112195;28;20020;-87
2023/04/13 10:37:04;;;;;;;10.95;2.65;;;;;;;10.26;78.78;100122.44;5112036;28;20114;-87
2023/04/13 10:39:34;;;;;;;16.05;3.20;;;;;;;10.67;77.73;100128.94;5129536;28;20092;-86
2023/04/13 10:42:14;;;;;;;12.43;2.75;;;;;;;10.83;75.00;100124.69;5112212;28;20494;-85
2023/04/13 10:44:44;;;;;;;7.53;2.03;;;;;;;11.00;73.85;100138.41;5112141;28;20028;-86
2023/04/13 10:47:14;;;;;;;15.68;2.78;;;;;;;10.90;72.40;100142.78;5113048;28;20051;-86
2023/04/13 10:49:40;;;;;;;14.02;3.05;;;;;;;10.81;73.58;100134.16;5112384;28;20511;-86
2023/04/13 10:52:09;;;;;;;14.63;2.72;;;;;;;10.77;73.41;100132.97;5111609;28;20026;-86
2023/04/13 10:54:38;;;;;;;12.73;2.63;;;;;;;10.57;74.09;100133.28;5112952;28;20521;-86
2023/04/13 10:57:15;;;;;;;;;;;;;;;;;;;;;
2023/04/13 10:59:56;;;;;;;6.97;2.07;;;;;;;10.36;75.68;100146.31;5113536;28;20019;-85
2023/04/13 11:02:34;;;;;;;9.57;2.40;;;;;;;10.25;75.80;100156.03;5115996;28;20110;-85
2023/04/13 11:05:03;;;;;;;13.57;1.90;;;;;;;10.16;74.56;100173.69;5098907;28;20034;-86
2023/04/13 11:07:37;;;;;;;10.20;1.80;;;;;;;10.20;75.19;100158.59;5115766;28;20027;-90
2023/04/13 11:10:04;;;;;;;8.55;1.85;;;;;;;10.38;73.81;100171.34;5115406;28;20055;-85
2023/04/13 11:12:30;;;;;;;7.17;1.70;;;;;;;10.30;75.26;100169.72;5115378;28;20434;-85
2023/04/13 11:14:56;;;;;;;8.35;1.50;;;;;;;10.22;76.60;100170.06;5116589;28;20032;-86
2023/04/13 11:17:21;;;;;;;9.00;1.80;;;;;;;10.10;76.53;100170.00;5116187;28;20054;-87
2023/04/13 11:19:54;;;;;;;13.35;1.75;;;;;;;9.92;79.29;100170.03;5098372;28;20115;-86
2023/04/13 11:22:26;;;;;;;11.63;1.85;;;;;;;9.78;76.65;100186.44;5114504;28;20097;-86
2023/04/13 11:25:12;;;;;;;9.83;1.50;;;;;;;9.97;76.49;100179.13;5116978;28;20023;-86
2023/04/13 11:27:38;;;;;;;10.57;1.52;;;;;;;10.68;73.33;100179.41;5115827;28;20448;-86
2023/04/13 11:30:05;;;;;;;13.85;1.60;;;;;;;11.94;70.41;100180.13;5115293;28;20051;-86
2023/04/13 11:32:38;;;;;;;11.07;1.53;;;;;;;13.18;65.59;100187.78;5098559;28;20036;-86
2023/04/13 11:35:17;;;;;;;8.77;1.60;;;;;;;13.56;63.90;100172.56;5116292;28;20399;-86
2023/04/13 11:38:16;;;;;;;6.57;1.80;;;;;;;14.32;61.65;100169.94;5114707;28;20023;-86
2023/04/13 11:40:48;;;;;;;6.18;1.60;;;;;;;16.99;54.58;100169.69;5110864;28;20043;-86
2023/04/13 11:43:17;;;;;;;8.05;1.77;;;;;;;19.28;46.59;100159.78;5116013;28;20379;-86
2023/04/13 11:45:43;;;;;;;8.40;1.90;;;;;;;21.34;42.33;100167.91;5098410;28;20058;-87
2023/04/13 11:48:14;;;;;;;8.68;1.42;;;;;;;22.33;38.64;100169.56;5132152;27;20035;-87
2023/04/13 11:50:45;;;;;;;7.60;1.58;;;;;;;22.95;37.17;100177.22;5098413;28;20035;-87
2023/04/13 11:53:17;;;;;;;7.60;1.85;;;;;;;23.46;34.64;100164.81;5114881;28;20036;-87
2023/04/13 11:55:43;;;;;;;7.50;2.20;;;;;;;23.01;33.81;100169.59;5115669;28;20039;-87
2023/04/13 11:58:20;;;;;;;12.57;2.77;;;;;;;20.18;37.51;100167.53;5114434;28;20023;-87
2023/04/13 12:00:57;;;;;;;;;;;;;;;;;;;;;
2023/04/13 12:03:33;;;;;;;6.32;2.10;;;;;;;17.10;40.47;100171.34;5117098;28;20363;-87
2023/04/13 12:06:07;;;;;;;7.78;1.90;;;;;;;15.60;45.02;100161.09;5114212;28;20032;-87
2023/04/13 12:08:33;;;;;;;5.45;1.45;;;;;;;15.69;46.82;100175.09;5132151;27;20130;-87
2023/04/13 12:11:06;;;;;;;8.00;1.43;;;;;;;16.53;47.03;100184.16;5097166;28;20130;-87
2023/04/13 12:13:44;;;;;;;7.38;1.70;;;;;;;19.39;41.17;100173.41;5114359;28;20093;-86
2023/04/13 12:16:13;;;;;;;7.75;1.83;;;;;;;21.62;34.37;100180.97;5097617;28;20093;-87
2023/04/13 12:18:43;;;;;;;9.37;1.60;;;;;;;22.03;34.26;100188.41;5114109;28;20062;-88
2023/04/13 12:21:18;;;;;;;7.15;1.67;;;;;;;23.23;33.24;100193.69;5113986;28;20031;-88
2023/04/13 12:23:56;;;;;;;8.90;1.90;;;;;;;23.81;30.77;100191.81;5115680;28;20031;-88
2023/04/13 12:26:41;;;;;;;5.82;1.60;;;;;;;23.11;31.55;100181.25;5114388;28;20031;-88
2023/04/13 12:29:10;;;;;;;8.98;1.80;;;;;;;20.22;32.13;100182.34;5115722;28;20024;-88
2023/04/13 12:34:57;;;;;;;5.78;1.70;;;;;;;16.25;40.84;100188.19;5115362;28;20422;-88
2023/04/13 12:37:23;;;;;;;8.77;1.63;;;;;;;15.40;42.55;100202.81;5113783;28;20023;-87
2023/04/13 12:40:02;;;;;;;;;;;;;;;;;;;;;
2023/04/13 12:42:28;;;;;;;5.13;1.30;;;;;;;17.18;43.05;100200.09;5115484;28;20032;-87
2023/04/13 12:44:55;;;;;;;6.57;1.50;;;;;;;20.53;36.10;100200.41;5113879;28;20146;-88
2023/04/13 12:47:23;;;;;;;5.95;1.67;;;;;;;22.72;30.94;100198.50;5113548;28;20067;-89
2023/04/13 12:49:48;;;;;;;7.55;1.60;;;;;;;23.60;28.84;100213.75;5114760;28;20051;-87